sensor_id;sensor_type;location;lat;lon;timestamp;pressure;altitude;pressure_sealevel;temperature;humidity
32083;BME280;18597;48.328;7.932;2023-08-07T00:00:42;99625.56;;;11.86;100.00
32083;BME280;18597;48.328;7.932;2023-08-07T00:03:08;99635.13;;;11.89;100.00
32083;BME280;18597;48.328;7.932;2023-08-07T00:05:35;99639.34;;;11.91;100.00
32083;BME280;18597;48.328;7.932;2023-08-07T00:08:00;99637.97;;;11.87;100.00
32083;BME280;18597;48.328;7.932;2023-08-07T00:10:26;99644.09;;;11.78;100.00
32083;BME280;18597;48.328;7.932;2023-08-07T00:12:52;99637.38;;;11.84;100.00
32083;BME280;18597;48.328;7.932;2023-08-07T00:15:18;99643.69;;;11.73;100.00
32083;BME280;18597;48.328;7.932;2023-08-07T00:17:44;99633.59;;;11.86;100.00
32083;BME280;18597;48.328;7.932;2023-08-07T00:20:10;99636.75;;;11.71;100.00
32083;BME280;18597;48.328;7.932;2023-08-07T00:22:36;99635.34;;;11.66;100.00
32083;BME280;18597;48.328;7.932;2023-08-07T00:25:02;99636.06;;;11.68;100.00
32083;BME280;18597;48.328;7.932;2023-08-07T00:27:28;99639.03;;;11.75;100.00
32083;BME280;18597;48.328;7.932;2023-08-07T00:29:53;99636.63;;;11.72;100.00
32083;BME280;18597;48.328;7.932;2023-08-07T00:32:19;99638.72;;;11.78;100.00
32083;BME280;18597;48.328;7.932;2023-08-07T00:34:45;99632.53;;;11.78;100.00
32083;BME280;18597;48.328;7.932;2023-08-07T00:37:11;99639.56;;;11.69;100.00
32083;BME280;18597;48.328;7.932;2023-08-07T00:39:37;99649.28;;;11.70;100.00
32083;BME280;18597;48.328;7.932;2023-08-07T00:42:03;99644.38;;;11.75;100.00
32083;BME280;18597;48.328;7.932;2023-08-07T00:44:28;99649.56;;;11.67;100.00
32083;BME280;18597;48.328;7.932;2023-08-07T00:46:54;99641.94;;;11.62;100.00
32083;BME280;18597;48.328;7.932;2023-08-07T00:49:20;99639.00;;;11.65;100.00
32083;BME280;18597;48.328;7.932;2023-08-07T00:51:46;99637.66;;;11.81;100.00
32083;BME280;18597;48.328;7.932;2023-08-07T00:54:15;99646.63;;;11.70;100.00
32083;BME280;18597;48.328;7.932;2023-08-07T00:56:44;99644.22;;;11.67;100.00
32083;BME280;18597;48.328;7.932;2023-08-07T00:59:10;99641.94;;;11.62;100.00
32083;BME280;18597;48.328;7.932;2023-08-07T01:01:36;99644.22;;;11.67;100.00
32083;BME280;18597;48.328;7.932;2023-08-07T01:04:02;99643.06;;;11.50;100.00
32083;BME280;18597;48.328;7.932;2023-08-07T01:06:28;99646.41;;;11.43;100.00
32083;BME280;18597;48.328;7.932;2023-08-07T01:08:54;99648.66;;;11.37;100.00
32083;BME280;18597;48.328;7.932;2023-08-07T01:11:46;99652.47;;;11.45;100.00
32083;BME280;18597;48.328;7.932;2023-08-07T01:14:37;99644.59;;;11.43;100.00
32083;BME280;18597;48.328;7.932;2023-08-07T01:17:16;99648.47;;;11.29;100.00
32083;BME280;18597;48.328;7.932;2023-08-07T01:19:42;99650.00;;;11.22;100.00
32083;BME280;18597;48.328;7.932;2023-08-07T01:22:17;99654.03;;;11.07;100.00
32083;BME280;18597;48.328;7.932;2023-08-07T01:24:47;99656.06;;;10.94;100.00
32083;BME280;18597;48.328;7.932;2023-08-07T01:30:33;99666.19;;;10.69;100.00
32083;BME280;18597;48.328;7.932;2023-08-07T01:33:31;99671.53;;;10.69;100.00
32083;BME280;18597;48.328;7.932;2023-08-07T01:36:01;99665.72;;;10.64;100.00
32083;BME280;18597;48.328;7.932;2023-08-07T01:38:29;99668.31;;;10.96;100.00
32083;BME280;18597;48.328;7.932;2023-08-07T01:40:56;99663.03;;;10.85;100.00
32083;BME280;18597;48.328;7.932;2023-08-07T01:43:23;99660.75;;;10.80;100.00
32083;BME280;18597;48.328;7.932;2023-08-07T01:45:48;99660.31;;;10.75;100.00
32083;BME280;18597;48.328;7.932;2023-08-07T01:48:14;99661.03;;;10.77;100.00
32083;BME280;18597;48.328;7.932;2023-08-07T01:50:40;99665.53;;;10.56;100.00
32083;BME280;18597;48.328;7.932;2023-08-07T01:53:06;99671.81;;;10.66;100.00
32083;BME280;18597;48.328;7.932;2023-08-07T01:55:32;99674.94;;;10.50;100.00
32083;BME280;18597;48.328;7.932;2023-08-07T01:57:58;99680.97;;;10.32;100.00
32083;BME280;18597;48.328;7.932;2023-08-07T02:00:24;99677.81;;;10.26;100.00
32083;BME280;18597;48.328;7.932;2023-08-07T02:02:49;99677.09;;;10.24;100.00
32083;BME280;18597;48.328;7.932;2023-08-07T02:05:16;99673.22;;;10.28;100.00
32083;BME280;18597;48.328;7.932;2023-08-07T02:07:42;99675.25;;;10.36;100.00
32083;BME280;18597;48.328;7.932;2023-08-07T02:10:08;99685.78;;;10.38;100.00
32083;BME280;18597;48.328;7.932;2023-08-07T02:12:34;99683.31;;;10.46;100.00
32083;BME280;18597;48.328;7.932;2023-08-07T02:15:01;99688.53;;;10.47;100.00
32083;BME280;18597;48.328;7.932;2023-08-07T02:17:28;99680.78;;;10.44;100.00
32083;BME280;18597;48.328;7.932;2023-08-07T02:19:56;99686.97;;;10.45;100.00
32083;BME280;18597;48.328;7.932;2023-08-07T02:22:22;99689.38;;;10.48;100.00
32083;BME280;18597;48.328;7.932;2023-08-07T02:24:48;99685.88;;;10.47;100.00
32083;BME280;18597;48.328;7.932;2023-08-07T02:27:13;99692.31;;;10.45;100.00
32083;BME280;18597;48.328;7.932;2023-08-07T02:29:39;99681.84;;;10.53;100.00
32083;BME280;18597;48.328;7.932;2023-08-07T02:32:05;99687.84;;;10.34;100.00
32083;BME280;18597;48.328;7.932;2023-08-07T02:34:31;99693.13;;;10.24;100.00
32083;BME280;18597;48.328;7.932;2023-08-07T02:36:58;99681.22;;;10.28;100.00
32083;BME280;18597;48.328;7.932;2023-08-07T02:39:25;99679.97;;;10.33;100.00
32083;BME280;18597;48.328;7.932;2023-08-07T02:41:51;99685.53;;;10.41;100.00
32083;BME280;18597;48.328;7.932;2023-08-07T02:44:17;99687.69;;;10.47;100.00
32083;BME280;18597;48.328;7.932;2023-08-07T02:46:43;99684.50;;;10.53;100.00
32083;BME280;18597;48.328;7.932;2023-08-07T02:49:09;99678.34;;;10.41;100.00
32083;BME280;18597;48.328;7.932;2023-08-07T02:51:35;99682.69;;;10.53;100.00
32083;BME280;18597;48.328;7.932;2023-08-07T02:54:01;99681.97;;;10.51;100.00
32083;BME280;18597;48.328;7.932;2023-08-07T02:56:27;99681.38;;;10.48;100.00
32083;BME280;18597;48.328;7.932;2023-08-07T02:58:52;99680.47;;;10.59;100.00
32083;BME280;18597;48.328;7.932;2023-08-07T03:01:19;99682.41;;;10.56;100.00
32083;BME280;18597;48.328;7.932;2023-08-07T03:03:46;99680.47;;;10.59;100.00
32083;BME280;18597;48.328;7.932;2023-08-07T03:06:12;99676.81;;;10.60;100.00
32083;BME280;18597;48.328;7.932;2023-08-07T03:08:38;99688.34;;;10.60;100.00
32083;BME280;18597;48.328;7.932;2023-08-07T03:11:04;99672.47;;;10.59;100.00
32083;BME280;18597;48.328;7.932;2023-08-07T03:13:30;99677.16;;;10.66;100.00
32083;BME280;18597;48.328;7.932;2023-08-07T03:16:01;99673.03;;;10.62;100.00
32083;BME280;18597;48.328;7.932;2023-08-07T03:18:28;99671.06;;;10.64;100.00
32083;BME280;18597;48.328;7.932;2023-08-07T03:20:55;99675.72;;;10.62;100.00
32083;BME280;18597;48.328;7.932;2023-08-07T03:23:23;99670.56;;;10.70;100.00
32083;BME280;18597;48.328;7.932;2023-08-07T03:25:49;99671.06;;;10.64;100.00
32083;BME280;18597;48.328;7.932;2023-08-07T03:28:16;99676.41;;;10.64;100.00
32083;BME280;18597;48.328;7.932;2023-08-07T03:30:42;99670.09;;;10.65;100.00
32083;BME280;18597;48.328;7.932;2023-08-07T03:33:10;99678.84;;;10.67;100.00
32083;BME280;18597;48.328;7.932;2023-08-07T03:35:36;99666.19;;;10.69;100.00
32083;BME280;18597;48.328;7.932;2023-08-07T03:38:02;99668.53;;;10.63;100.00
32083;BME280;18597;48.328;7.932;2023-08-07T03:40:27;99662.34;;;10.83;100.00
32083;BME280;18597;48.328;7.932;2023-08-07T03:42:53;99664.41;;;10.79;100.00
32083;BME280;18597;48.328;7.932;2023-08-07T03:45:19;99666.91;;;10.71;100.00
32083;BME280;18597;48.328;7.932;2023-08-07T03:47:45;99669.91;;;10.78;100.00
32083;BME280;18597;48.328;7.932;2023-08-07T03:50:10;99667.09;;;10.79;100.00
32083;BME280;18597;48.328;7.932;2023-08-07T03:52:36;99671.59;;;10.79;100.00
32083;BME280;18597;48.328;7.932;2023-08-07T03:55:02;99673.88;;;10.83;100.00
32083;BME280;18597;48.328;7.932;2023-08-07T03:57:28;99669.38;;;10.84;100.00
32083;BME280;18597;48.328;7.932;2023-08-07T03:59:54;99675.19;;;10.89;100.00
32083;BME280;18597;48.328;7.932;2023-08-07T04:02:20;99677.91;;;10.99;100.00
32083;BME280;18597;48.328;7.932;2023-08-07T04:04:45;99675.50;;;10.96;100.00
32083;BME280;18597;48.328;7.932;2023-08-07T04:07:11;99675.03;;;11.11;100.00
32083;BME280;18597;48.328;7.932;2023-08-07T04:09:37;99686.66;;;11.10;100.00
32083;BME280;18597;48.328;7.932;2023-08-07T04:12:03;99684.59;;;11.14;100.00
32083;BME280;18597;48.328;7.932;2023-08-07T04:14:29;99683.31;;;11.18;100.00
32083;BME280;18597;48.328;7.932;2023-08-07T04:16:55;99684.25;;;11.28;100.00
32083;BME280;18597;48.328;7.932;2023-08-07T04:19:21;99684.19;;;11.19;100.00
32083;BME280;18597;48.328;7.932;2023-08-07T04:21:46;99681.91;;;11.14;100.00
32083;BME280;18597;48.328;7.932;2023-08-07T04:24:12;99687.25;;;11.14;100.00
32083;BME280;18597;48.328;7.932;2023-08-07T04:26:38;99684.63;;;11.24;100.00
32083;BME280;18597;48.328;7.932;2023-08-07T04:29:05;99689.91;;;11.35;100.00
32083;BME280;18597;48.328;7.932;2023-08-07T04:31:31;99690.47;;;11.38;100.00
32083;BME280;18597;48.328;7.932;2023-08-07T04:33:57;99687.69;;;11.50;100.00
32083;BME280;18597;48.328;7.932;2023-08-07T04:36:23;99690.38;;;11.50;100.00
32083;BME280;18597;48.328;7.932;2023-08-07T04:38:50;99692.22;;;11.49;100.00
32083;BME280;18597;48.328;7.932;2023-08-07T04:41:17;99689.81;;;11.56;100.00
32083;BME280;18597;48.328;7.932;2023-08-07T04:43:43;99699.94;;;11.52;100.00
32083;BME280;18597;48.328;7.932;2023-08-07T04:46:09;99693.91;;;11.50;100.00
32083;BME280;18597;48.328;7.932;2023-08-07T04:48:36;99697.28;;;11.52;100.00
32083;BME280;18597;48.328;7.932;2023-08-07T04:51:02;99692.25;;;11.68;100.00
32083;BME280;18597;48.328;7.932;2023-08-07T04:53:28;99702.97;;;11.68;100.00
32083;BME280;18597;48.328;7.932;2023-08-07T04:55:54;99700.19;;;11.80;100.00
32083;BME280;18597;48.328;7.932;2023-08-07T04:58:20;99701.63;;;11.84;100.00
32083;BME280;18597;48.328;7.932;2023-08-07T05:00:45;99701.81;;;12.02;100.00
32083;BME280;18597;48.328;7.932;2023-08-07T05:03:11;99709.56;;;12.05;100.00
32083;BME280;18597;48.328;7.932;2023-08-07T05:05:37;99710.94;;;12.09;100.00
32083;BME280;18597;48.328;7.932;2023-08-07T05:08:03;99710.41;;;12.05;100.00
32083;BME280;18597;48.328;7.932;2023-08-07T05:10:29;99713.63;;;11.89;100.00
32083;BME280;18597;48.328;7.932;2023-08-07T05:12:55;99713.69;;;11.78;100.00
32083;BME280;18597;48.328;7.932;2023-08-07T05:15:25;99716.13;;;11.81;100.00
32083;BME280;18597;48.328;7.932;2023-08-07T05:17:51;99719.97;;;11.88;100.00
32083;BME280;18597;48.328;7.932;2023-08-07T05:20:17;99717.28;;;11.88;100.00
32083;BME280;18597;48.328;7.932;2023-08-07T05:22:45;99718.84;;;12.01;100.00
32083;BME280;18597;48.328;7.932;2023-08-07T05:25:11;99715.22;;;12.11;100.00
32083;BME280;18597;48.328;7.932;2023-08-07T05:27:45;99717.19;;;12.19;100.00
32083;BME280;18597;48.328;7.932;2023-08-07T05:30:12;99724.53;;;12.17;100.00
32083;BME280;18597;48.328;7.932;2023-08-07T05:32:38;99724.25;;;12.20;100.00
32083;BME280;18597;48.328;7.932;2023-08-07T05:35:06;99725.47;;;12.16;100.00
32083;BME280;18597;48.328;7.932;2023-08-07T05:37:33;99731.81;;;12.15;100.00
32083;BME280;18597;48.328;7.932;2023-08-07T05:40:00;99733.53;;;12.16;100.00
32083;BME280;18597;48.328;7.932;2023-08-07T05:42:26;99730.84;;;12.16;100.00
32083;BME280;18597;48.328;7.932;2023-08-07T05:44:52;99732.81;;;12.23;100.00
32083;BME280;18597;48.328;7.932;2023-08-07T05:47:17;99725.78;;;12.22;100.00
32083;BME280;18597;48.328;7.932;2023-08-07T05:49:43;99728.50;;;12.32;100.00
32083;BME280;18597;48.328;7.932;2023-08-07T05:52:09;99732.56;;;12.46;100.00
32083;BME280;18597;48.328;7.932;2023-08-07T05:54:35;99734.94;;;12.68;100.00
32083;BME280;18597;48.328;7.932;2023-08-07T05:57:01;99735.38;;;12.83;100.00
32083;BME280;18597;48.328;7.932;2023-08-07T05:59:26;99737.22;;;12.92;100.00
32083;BME280;18597;48.328;7.932;2023-08-07T06:01:53;99737.75;;;12.96;100.00
32083;BME280;18597;48.328;7.932;2023-08-07T06:04:20;99742.56;;;12.92;100.00
32083;BME280;18597;48.328;7.932;2023-08-07T06:06:47;99743.28;;;12.94;100.00
32083;BME280;18597;48.328;7.932;2023-08-07T06:09:13;99752.13;;;13.04;100.00
32083;BME280;18597;48.328;7.932;2023-08-07T06:11:41;99755.50;;;13.06;100.00
32083;BME280;18597;48.328;7.932;2023-08-07T06:14:07;99748.75;;;13.02;100.00
32083;BME280;18597;48.328;7.932;2023-08-07T06:16:33;99757.22;;;13.08;100.00
32083;BME280;18597;48.328;7.932;2023-08-07T06:18:59;99753.69;;;13.17;100.00
32083;BME280;18597;48.328;7.932;2023-08-07T06:21:24;99745.47;;;13.18;100.00
32083;BME280;18597;48.328;7.932;2023-08-07T06:23:51;99748.47;;;13.15;100.00
32083;BME280;18597;48.328;7.932;2023-08-07T06:26:17;99747.72;;;13.13;100.00
32083;BME280;18597;48.328;7.932;2023-08-07T06:28:43;99754.09;;;13.12;100.00
32083;BME280;18597;48.328;7.932;2023-08-07T06:31:11;99750.00;;;13.18;100.00
32083;BME280;18597;48.328;7.932;2023-08-07T06:33:37;99756.66;;;13.23;100.00
32083;BME280;18597;48.328;7.932;2023-08-07T06:36:04;99756.94;;;13.30;100.00
32083;BME280;18597;48.328;7.932;2023-08-07T06:38:30;99763.84;;;13.32;100.00
32083;BME280;18597;48.328;7.932;2023-08-07T06:40:57;99769.63;;;13.28;100.00
32083;BME280;18597;48.328;7.932;2023-08-07T06:43:22;99758.63;;;13.31;100.00
32083;BME280;18597;48.328;7.932;2023-08-07T06:45:51;99771.88;;;13.32;100.00
32083;BME280;18597;48.328;7.932;2023-08-07T06:48:18;99776.09;;;13.35;100.00
32083;BME280;18597;48.328;7.932;2023-08-07T06:50:46;99775.34;;;13.52;100.00
32083;BME280;18597;48.328;7.932;2023-08-07T06:53:11;99776.28;;;13.71;100.00
32083;BME280;18597;48.328;7.932;2023-08-07T06:55:37;99764.81;;;14.06;100.00
32083;BME280;18597;48.328;7.932;2023-08-07T06:58:03;99781.34;;;14.29;100.00
32083;BME280;18597;48.328;7.932;2023-08-07T07:00:29;99780.13;;;14.41;100.00
32083;BME280;18597;48.328;7.932;2023-08-07T07:02:55;99776.84;;;14.47;100.00
32083;BME280;18597;48.328;7.932;2023-08-07T07:05:21;99782.56;;;14.62;100.00
32083;BME280;18597;48.328;7.932;2023-08-07T07:07:47;99779.63;;;14.55;100.00
32083;BME280;18597;48.328;7.932;2023-08-07T07:10:13;99784.47;;;14.69;100.00
32083;BME280;18597;48.328;7.932;2023-08-07T07:12:38;99777.94;;;14.90;100.00
32083;BME280;18597;48.328;7.932;2023-08-07T07:15:05;99789.06;;;15.39;100.00
32083;BME280;18597;48.328;7.932;2023-08-07T07:17:30;99783.03;;;16.05;100.00
32083;BME280;18597;48.328;7.932;2023-08-07T07:19:56;99786.09;;;16.77;100.00
32083;BME280;18597;48.328;7.932;2023-08-07T07:22:22;99797.06;;;17.40;100.00
32083;BME280;18597;48.328;7.932;2023-08-07T07:24:48;99798.22;;;17.62;100.00
32083;BME280;18597;48.328;7.932;2023-08-07T07:27:14;99804.47;;;17.55;100.00
32083;BME280;18597;48.328;7.932;2023-08-07T07:29:40;99801.81;;;17.38;100.00
32083;BME280;18597;48.328;7.932;2023-08-07T07:32:06;99801.78;;;17.22;100.00
32083;BME280;18597;48.328;7.932;2023-08-07T07:34:32;99800.28;;;17.19;100.00
32083;BME280;18597;48.328;7.932;2023-08-07T07:36:59;99802.81;;;17.21;100.00
32083;BME280;18597;48.328;7.932;2023-08-07T07:39:25;99810.25;;;17.27;100.00
32083;BME280;18597;48.328;7.932;2023-08-07T07:41:50;99801.78;;;17.46;100.00
32083;BME280;18597;48.328;7.932;2023-08-07T07:44:16;99802.94;;;17.60;100.00
32083;BME280;18597;48.328;7.932;2023-08-07T07:46:42;99806.31;;;17.62;100.00
32083;BME280;18597;48.328;7.932;2023-08-07T07:49:08;99811.72;;;17.62;100.00
32083;BME280;18597;48.328;7.932;2023-08-07T07:51:33;99804.13;;;17.50;100.00
32083;BME280;18597;48.328;7.932;2023-08-07T07:54:01;99809.22;;;17.36;100.00
32083;BME280;18597;48.328;7.932;2023-08-07T07:56:26;99811.75;;;17.22;100.00
32083;BME280;18597;48.328;7.932;2023-08-07T07:58:52;99811.75;;;17.38;100.00
32083;BME280;18597;48.328;7.932;2023-08-07T08:01:18;99824.88;;;17.57;100.00
32083;BME280;18597;48.328;7.932;2023-08-07T08:03:44;99822.69;;;17.85;100.00
32083;BME280;18597;48.328;7.932;2023-08-07T08:06:12;99822.56;;;18.18;92.41
32083;BME280;18597;48.328;7.932;2023-08-07T08:08:38;99829.31;;;18.84;92.11
32083;BME280;18597;48.328;7.932;2023-08-07T08:11:04;99811.38;;;20.26;82.08
32083;BME280;18597;48.328;7.932;2023-08-07T08:13:30;99818.13;;;22.14;63.06
32083;BME280;18597;48.328;7.932;2023-08-07T08:15:55;99823.72;;;23.02;55.79
32083;BME280;18597;48.328;7.932;2023-08-07T08:18:21;99823.22;;;22.24;58.63
32083;BME280;18597;48.328;7.932;2023-08-07T08:20:47;99823.00;;;21.13;66.03
32083;BME280;18597;48.328;7.932;2023-08-07T08:23:13;99826.53;;;20.20;71.24
32083;BME280;18597;48.328;7.932;2023-08-07T08:25:39;99829.69;;;19.79;74.96
32083;BME280;18597;48.328;7.932;2023-08-07T08:28:05;99838.97;;;19.47;78.51
32083;BME280;18597;48.328;7.932;2023-08-07T08:30:30;99835.28;;;19.02;83.22
32083;BME280;18597;48.328;7.932;2023-08-07T08:32:56;99835.84;;;18.58;85.95
32083;BME280;18597;48.328;7.932;2023-08-07T08:35:22;99845.53;;;18.22;90.26
32083;BME280;18597;48.328;7.932;2023-08-07T08:37:48;99836.88;;;17.79;97.00
32083;BME280;18597;48.328;7.932;2023-08-07T08:40:14;99835.19;;;17.78;94.83
32083;BME280;18597;48.328;7.932;2023-08-07T08:42:44;99845.81;;;17.63;94.99
32083;BME280;18597;48.328;7.932;2023-08-07T08:45:14;99839.59;;;17.46;94.49
32083;BME280;18597;48.328;7.932;2023-08-07T08:47:41;99838.03;;;17.93;91.71
32083;BME280;18597;48.328;7.932;2023-08-07T08:50:13;99845.75;;;18.51;90.89
32083;BME280;18597;48.328;7.932;2023-08-07T08:52:43;99838.56;;;19.35;88.53
32083;BME280;18597;48.328;7.932;2023-08-07T08:55:12;99848.56;;;19.87;83.98
32083;BME280;18597;48.328;7.932;2023-08-07T08:57:39;99850.00;;;19.98;78.39
32083;BME280;18597;48.328;7.932;2023-08-07T09:00:08;99855.22;;;19.85;78.43
32083;BME280;18597;48.328;7.932;2023-08-07T09:02:48;99845.03;;;20.02;79.75
32083;BME280;18597;48.328;7.932;2023-08-07T09:05:15;99842.50;;;20.44;73.42
32083;BME280;18597;48.328;7.932;2023-08-07T09:07:42;99841.44;;;20.60;72.99
32083;BME280;18597;48.328;7.932;2023-08-07T09:10:10;99829.81;;;21.24;68.38
32083;BME280;18597;48.328;7.932;2023-08-07T09:12:42;99831.00;;;21.99;62.08
32083;BME280;18597;48.328;7.932;2023-08-07T09:15:11;99829.41;;;22.46;59.16
32083;BME280;18597;48.328;7.932;2023-08-07T09:17:40;99823.22;;;22.78;52.85
32083;BME280;18597;48.328;7.932;2023-08-07T09:20:09;99821.09;;;22.74;54.19
32083;BME280;18597;48.328;7.932;2023-08-07T09:22:39;99827.72;;;23.25;57.01
32083;BME280;18597;48.328;7.932;2023-08-07T09:25:06;99823.72;;;23.41;51.29
32083;BME280;18597;48.328;7.932;2023-08-07T09:27:32;99822.88;;;23.01;52.15
32083;BME280;18597;48.328;7.932;2023-08-07T09:29:58;99831.66;;;23.03;53.78
32083;BME280;18597;48.328;7.932;2023-08-07T09:32:24;99830.88;;;23.29;52.87
32083;BME280;18597;48.328;7.932;2023-08-07T09:34:51;99829.41;;;23.60;50.21
32083;BME280;18597;48.328;7.932;2023-08-07T09:37:18;99830.44;;;23.85;49.95
32083;BME280;18597;48.328;7.932;2023-08-07T09:39:43;99832.34;;;23.65;50.41
32083;BME280;18597;48.328;7.932;2023-08-07T09:42:17;99831.50;;;23.38;50.45
32083;BME280;18597;48.328;7.932;2023-08-07T09:44:43;99836.31;;;23.49;50.93
32083;BME280;18597;48.328;7.932;2023-08-07T09:47:13;99834.69;;;23.68;51.06
32083;BME280;18597;48.328;7.932;2023-08-07T09:49:40;99823.97;;;23.73;50.67
32083;BME280;18597;48.328;7.932;2023-08-07T09:52:09;99830.44;;;23.98;47.11
32083;BME280;18597;48.328;7.932;2023-08-07T09:54:36;99835.44;;;24.08;47.74
32083;BME280;18597;48.328;7.932;2023-08-07T09:57:03;99829.63;;;23.78;44.25
32083;BME280;18597;48.328;7.932;2023-08-07T09:59:29;99832.50;;;22.90;44.46
32083;BME280;18597;48.328;7.932;2023-08-07T10:01:55;99835.91;;;22.45;46.74
32083;BME280;18597;48.328;7.932;2023-08-07T10:04:22;99828.03;;;22.28;46.64
32083;BME280;18597;48.328;7.932;2023-08-07T10:06:48;99826.25;;;22.49;46.51
32083;BME280;18597;48.328;7.932;2023-08-07T10:09:14;99826.78;;;22.79;45.70
32083;BME280;18597;48.328;7.932;2023-08-07T10:11:41;99828.34;;;23.14;45.56
32083;BME280;18597;48.328;7.932;2023-08-07T10:14:09;99832.13;;;23.40;45.28
32083;BME280;18597;48.328;7.932;2023-08-07T10:16:35;99833.00;;;23.67;44.02
32083;BME280;18597;48.328;7.932;2023-08-07T10:19:06;99836.31;;;23.49;42.64
32083;BME280;18597;48.328;7.932;2023-08-07T10:21:35;99832.97;;;23.34;43.29
32083;BME280;18597;48.328;7.932;2023-08-07T10:24:04;99829.72;;;22.84;44.03
32083;BME280;18597;48.328;7.932;2023-08-07T10:26:33;99839.31;;;22.73;43.31
32083;BME280;18597;48.328;7.932;2023-08-07T10:29:03;99836.78;;;22.65;42.28
32083;BME280;18597;48.328;7.932;2023-08-07T10:31:30;99842.13;;;22.86;42.47
32083;BME280;18597;48.328;7.932;2023-08-07T10:33:57;99842.34;;;23.05;41.74
32083;BME280;18597;48.328;7.932;2023-08-07T10:36:23;99838.47;;;23.67;42.61
32083;BME280;18597;48.328;7.932;2023-08-07T10:39:15;99836.81;;;24.44;42.05
32083;BME280;18597;48.328;7.932;2023-08-07T10:41:46;99835.66;;;25.09;41.64
32083;BME280;18597;48.328;7.932;2023-08-07T10:44:32;99842.28;;;25.52;38.68
32083;BME280;18597;48.328;7.932;2023-08-07T10:46:58;99843.22;;;25.39;39.08
32083;BME280;18597;48.328;7.932;2023-08-07T10:49:41;99840.22;;;25.15;39.37
32083;BME280;18597;48.328;7.932;2023-08-07T10:52:13;99839.53;;;25.27;39.15
32083;BME280;18597;48.328;7.932;2023-08-07T10:54:46;99834.16;;;25.13;38.38
32083;BME280;18597;48.328;7.932;2023-08-07T10:57:13;99831.75;;;24.47;37.80
32083;BME280;18597;48.328;7.932;2023-08-07T11:02:29;99835.06;;;23.91;40.58
32083;BME280;18597;48.328;7.932;2023-08-07T11:04:56;99831.50;;;23.84;41.07
32083;BME280;18597;48.328;7.932;2023-08-07T11:07:25;99837.56;;;23.33;41.73
32083;BME280;18597;48.328;7.932;2023-08-07T11:09:52;99825.78;;;22.93;41.83
32083;BME280;18597;48.328;7.932;2023-08-07T11:12:19;99825.16;;;22.91;43.18
32083;BME280;18597;48.328;7.932;2023-08-07T11:14:46;99839.44;;;23.00;43.46
32083;BME280;18597;48.328;7.932;2023-08-07T11:17:12;99832.50;;;23.04;42.81
32083;BME280;18597;48.328;7.932;2023-08-07T11:19:38;99825.09;;;22.78;42.98
32083;BME280;18597;48.328;7.932;2023-08-07T11:22:05;99823.16;;;22.65;42.26
32083;BME280;18597;48.328;7.932;2023-08-07T11:24:31;99824.94;;;22.31;43.82
32083;BME280;18597;48.328;7.932;2023-08-07T11:26:57;99833.88;;;21.91;44.52
32083;BME280;18597;48.328;7.932;2023-08-07T11:29:24;99830.63;;;21.46;44.56
32083;BME280;18597;48.328;7.932;2023-08-07T11:31:51;99831.28;;;21.48;45.14
32083;BME280;18597;48.328;7.932;2023-08-07T11:34:18;99812.94;;;21.28;45.33
32083;BME280;18597;48.328;7.932;2023-08-07T11:36:44;99817.06;;;21.24;46.19
32083;BME280;18597;48.328;7.932;2023-08-07T11:39:13;99808.38;;;21.14;46.41
32083;BME280;18597;48.328;7.932;2023-08-07T11:41:39;99809.56;;;21.05;47.65
32083;BME280;18597;48.328;7.932;2023-08-07T11:44:08;99806.06;;;20.90;47.65
32083;BME280;18597;48.328;7.932;2023-08-07T11:46:34;99808.97;;;20.88;46.67
32083;BME280;18597;48.328;7.932;2023-08-07T11:49:01;99803.34;;;21.11;47.94
32083;BME280;18597;48.328;7.932;2023-08-07T11:51:29;99801.34;;;21.69;47.56
32083;BME280;18597;48.328;7.932;2023-08-07T11:53:55;99804.22;;;22.30;46.18
32083;BME280;18597;48.328;7.932;2023-08-07T11:56:24;99790.66;;;22.50;44.86
32083;BME280;18597;48.328;7.932;2023-08-07T11:58:52;99795.66;;;22.40;44.50
32083;BME280;18597;48.328;7.932;2023-08-07T12:01:21;99801.94;;;22.40;45.19
32083;BME280;18597;48.328;7.932;2023-08-07T12:03:56;99794.41;;;22.42;43.22
32083;BME280;18597;48.328;7.932;2023-08-07T12:06:24;99786.09;;;22.64;43.58
32083;BME280;18597;48.328;7.932;2023-08-07T12:08:55;99808.19;;;22.34;42.83
32083;BME280;18597;48.328;7.932;2023-08-07T12:11:22;99799.78;;;22.23;43.07
32083;BME280;18597;48.328;7.932;2023-08-07T12:13:48;99801.69;;;21.94;43.05
32083;BME280;18597;48.328;7.932;2023-08-07T12:16:15;99806.13;;;22.02;43.60
32083;BME280;18597;48.328;7.932;2023-08-07T12:18:48;99799.63;;;22.37;43.88
32083;BME280;18597;48.328;7.932;2023-08-07T12:21:16;99799.13;;;22.75;42.67
32083;BME280;18597;48.328;7.932;2023-08-07T12:23:44;99808.63;;;23.12;42.29
32083;BME280;18597;48.328;7.932;2023-08-07T12:26:13;99805.91;;;23.25;42.02
32083;BME280;18597;48.328;7.932;2023-08-07T12:28:39;99804.88;;;23.60;41.91
32083;BME280;18597;48.328;7.932;2023-08-07T12:31:06;99800.66;;;23.70;41.18
32083;BME280;18597;48.328;7.932;2023-08-07T12:33:32;99801.91;;;23.54;41.03
32083;BME280;18597;48.328;7.932;2023-08-07T12:35:59;99805.50;;;23.15;41.17
32083;BME280;18597;48.328;7.932;2023-08-07T12:38:26;99799.16;;;22.88;41.69
32083;BME280;18597;48.328;7.932;2023-08-07T12:40:52;99802.31;;;22.85;42.30
32083;BME280;18597;48.328;7.932;2023-08-07T12:43:19;99801.00;;;22.81;42.06
32083;BME280;18597;48.328;7.932;2023-08-07T12:45:45;99796.34;;;22.62;42.93
32083;BME280;18597;48.328;7.932;2023-08-07T12:48:11;99803.00;;;22.39;43.91
32083;BME280;18597;48.328;7.932;2023-08-07T12:50:39;99804.63;;;22.34;44.40
32083;BME280;18597;48.328;7.932;2023-08-07T12:53:06;99803.91;;;22.12;45.14
32083;BME280;18597;48.328;7.932;2023-08-07T12:55:32;99795.22;;;21.67;44.72
32083;BME280;18597;48.328;7.932;2023-08-07T12:57:58;99795.50;;;21.44;45.59